»·PEaware :: N114HT KSMX-KBFL

N114HT :: KSMX-KBFL

FLIGHT INFORMATION

Flight Status: Arrived
Operator: Privately registered:
United States
More flights under this callsign
Pilot: Heigo T. (17565)
Aircraft: CESSNA 182 SKYLANE
(C182)
More flights by this aircraft type
Origin: KSMX Santa Maria Pub/Capt Hancock
United States
Destination: KBFL Meadows
United States
More flights between these airports :: More routes between these airports
Route: DCT
File this flight plan on PilotEdge
Remarks:
Altitude:
(Current/Filed)
7,500ft
Speed:
(Current/Filed)
135kts
Departed: 06-Jan-18 01:35 PM
Arrived: 06-Jan-18 02:15 PM
Distance/Time
Traveled:
76nm/0:40
Distance/Time
To Go:
Arrived

Flight Plot

Page will automatically refresh every two minutes.


Map Options




Map Legend


Flown Route
Filed Route
Departure Airport
Arrival Airport
Navaid (VOR, NDB)
Fix

Horizontal Profiles

Position Reports

Time Latitude Longitude Heading Altitude Ground
Speed
06-Jan-18 13:28 34.899910 -120.451147 226 264ft 0kts
06-Jan-18 13:29 34.899910 -120.451147 226 264ft 0kts
06-Jan-18 13:30 34.899909 -120.451149 226 264ft 0kts
06-Jan-18 13:31 34.899907 -120.451152 226 264ft 0kts
06-Jan-18 13:32 34.899905 -120.451154 226 264ft 0kts
06-Jan-18 13:33 34.899903 -120.451157 226 264ft 0kts
06-Jan-18 13:34 34.899901 -120.451159 226 264ft 0kts
06-Jan-18 13:35 34.899899 -120.451161 226 264ft 0kts
06-Jan-18 13:36 34.898301 -120.449973 135 264ft 19kts
06-Jan-18 13:37 34.894613 -120.445575 135 264ft 16kts
06-Jan-18 13:38 34.893538 -120.445276 181 264ft 0kts
06-Jan-18 13:39 34.893531 -120.445276 181 264ft 0kts
06-Jan-18 13:40 34.892877 -120.445819 285 264ft 8kts
06-Jan-18 13:41 34.904469 -120.460223 314 669ft 91kts
06-Jan-18 13:42 34.924014 -120.463320 35 1829ft 82kts
06-Jan-18 13:43 34.943324 -120.444332 38 2697ft 94kts
06-Jan-18 13:44 34.959037 -120.420803 53 3441ft 85kts
06-Jan-18 13:45 34.976772 -120.389889 53 3503ft 129kts
06-Jan-18 13:46 34.998685 -120.352854 53 3500ft 137kts
06-Jan-18 13:47 35.013757 -120.327541 53 3498ft 139kts
06-Jan-18 13:49 35.042123 -120.279973 53 3498ft 140kts
06-Jan-18 13:50 35.065199 -120.241515 53 3495ft 139kts
06-Jan-18 13:51 35.088922 -120.204896 53 3562ft 140kts
06-Jan-18 13:52 35.112819 -120.167088 53 3553ft 141kts
06-Jan-18 13:53 35.136745 -120.129663 56 3697ft 135kts
06-Jan-18 13:54 35.144117 -120.088593 120 4193ft 126kts
06-Jan-18 13:55 35.119233 -120.060457 139 4703ft 119kts
06-Jan-18 13:56 35.123002 -120.020187 71 5220ft 133kts
06-Jan-18 13:57 35.135093 -119.977350 71 5492ft 139kts
06-Jan-18 13:58 35.148355 -119.930786 71 5480ft 149kts
06-Jan-18 13:59 35.160800 -119.882538 85 5474ft 148kts
06-Jan-18 14:00 35.165911 -119.832320 84 5479ft 148kts
06-Jan-18 14:01 35.170941 -119.782123 80 5479ft 149kts
06-Jan-18 14:02 35.182903 -119.733826 73 5492ft 148kts
06-Jan-18 14:03 35.195207 -119.685626 73 5494ft 148kts
06-Jan-18 14:04 35.207500 -119.637463 73 5496ft 149kts
06-Jan-18 14:05 35.219970 -119.588136 73 5495ft 153kts
06-Jan-18 14:06 35.232481 -119.538491 73 5496ft 152kts
06-Jan-18 14:07 35.245040 -119.488645 73 5500ft 155kts
06-Jan-18 14:08 35.257513 -119.439142 73 5500ft 150kts
06-Jan-18 14:09 35.274925 -119.392045 52 5093ft 153kts
06-Jan-18 14:10 35.301935 -119.351146 50 4410ft 153kts
06-Jan-18 14:11 35.322901 -119.306938 61 3691ft 148kts
06-Jan-18 14:12 35.342422 -119.263417 61 2987ft 144kts
06-Jan-18 14:13 35.361748 -119.220148 61 2293ft 144kts
06-Jan-18 14:14 35.381076 -119.176937 61 1596ft 144kts
06-Jan-18 14:15 35.398558 -119.137658 61 1492ft 120kts
06-Jan-18 14:16 35.414393 -119.101821 61 1490ft 113kts
06-Jan-18 14:17 35.417952 -119.069183 125 1504ft 100kts
06-Jan-18 14:18 35.402666 -119.041913 76 1398ft 95kts
06-Jan-18 14:19 35.419103 -119.041995 310 814ft 77kts
06-Jan-18 14:20 35.432348 -119.057951 313 510ft 45kts
06-Jan-18 14:21 35.434141 -119.060788 233 510ft 0kts
06-Jan-18 14:22 35.434019 -119.060931 188 510ft 5kts
06-Jan-18 14:23 35.430178 -119.056413 135 510ft 18kts
06-Jan-18 14:24 35.427913 -119.055424 196 510ft 0kts
06-Jan-18 14:25 35.427765 -119.055386 53 510ft 0kts
06-Jan-18 14:26 35.427765 -119.055386 53 510ft 0kts
06-Jan-18 14:27 35.427765 -119.055386 53 510ft 0kts
06-Jan-18 14:28 35.427765 -119.055386 53 510ft 0kts
06-Jan-18 14:29 35.427765 -119.055386 53 510ft 0kts
06-Jan-18 14:30 35.427765 -119.055386 53 510ft 0kts

Navigation Log

Ident Type
1. KSMX Airport
2. KBFL Airport